Terminal Aerodrome Forecast
Issued by NWS

Current Version | Previous Version | Graphics & Text | Print | Product List | Glossary On
Versions: 1 2 3 4 5 6 7 8 9 10 11 12 13 14 15 16 17 18
179
FTUS41 KILN 172324
TAFLCK
TAF
KLCK 172324Z 1800/1824 21006KT P6SM FEW250
     FM181500 22010KT P6SM BKN200=

USA.gov is the U.S. government's official web portal to all federal, state and local government web resources and services.